Time;durP1;ratioP1;P1;durP2;ratioP2;P2;SDS_P1;SDS_P2;PMS_P1;PMS_P2;Temp;Humidity;BMP_temperature;BMP_pressure;BME280_temperature;BME280_humidity;BME280_pressure;Samples;Min_cycle;Max_cycle;Signal;HPM_P1;HPM_P2
2022/11/02 00:00:56;;;;;;;12.57;5.20;;;15.80;99.90;;;;;;5026428;28;20219;-78
2022/11/02 00:03:23;;;;;;;8.13;5.43;;;15.80;99.90;;;;;;5038117;28;20259;-78
2022/11/02 00:05:49;;;;;;;7.40;4.83;;;15.80;99.90;;;;;;5045536;28;20895;-78
2022/11/02 00:08:15;;;;;;;6.57;5.17;;;15.80;99.90;;;;;;5053950;28;20278;-78
2022/11/02 00:10:42;;;;;;;8.60;4.70;;;15.80;99.90;;;;;;5029835;28;20187;-78
2022/11/02 00:13:08;;;;;;;8.13;5.63;;;15.80;99.90;;;;;;5027469;28;20942;-78
2022/11/02 00:15:36;;;;;;;9.87;5.67;;;15.80;99.90;;;;;;5023950;28;20195;-78
2022/11/02 00:18:08;;;;;;;8.53;5.00;;;15.80;99.90;;;;;;5012577;28;20230;-78
2022/11/02 00:20:38;;;;;;;10.20;5.50;;;15.80;99.90;;;;;;5040142;28;20222;-78
2022/11/02 00:23:06;;;;;;;9.30;5.23;;;15.80;99.90;;;;;;5051007;28;20179;-78
2022/11/02 00:25:33;;;;;;;10.67;5.70;;;15.80;99.90;;;;;;5049911;28;20227;-78
2022/11/02 00:28:00;;;;;;;10.67;5.03;;;15.80;99.90;;;;;;5025382;28;20769;-78
2022/11/02 00:30:26;;;;;;;6.60;5.07;;;15.80;99.90;;;;;;5013416;28;20540;-78
2022/11/02 00:32:54;;;;;;;11.17;6.13;;;15.70;99.90;;;;;;5047215;28;20192;-78
2022/11/02 00:35:20;;;;;;;8.10;5.23;;;15.70;99.90;;;;;;5027731;28;20277;-77
2022/11/02 00:37:47;;;;;;;11.73;5.63;;;15.60;99.90;;;;;;5022573;28;20183;-78
2022/11/02 00:40:14;;;;;;;8.20;5.33;;;15.60;99.90;;;;;;5048316;28;20238;-78
2022/11/02 00:42:40;;;;;;;7.93;5.47;;;15.60;99.90;;;;;;5026584;28;20614;-78
2022/11/02 00:45:08;;;;;;;6.87;5.13;;;15.60;99.90;;;;;;5013847;28;20345;-78
2022/11/02 00:47:34;;;;;;;8.97;5.30;;;15.60;99.90;;;;;;5026961;28;20287;-78
2022/11/02 00:50:00;;;;;;;9.47;5.60;;;15.60;99.90;;;;;;5046044;28;20201;-78
2022/11/02 00:52:28;;;;;;;7.63;5.10;;;15.60;99.90;;;;;;5041485;28;20175;-78
2022/11/02 00:54:55;;;;;;;8.33;5.40;;;15.60;99.90;;;;;;5016817;28;20324;-78
2022/11/02 00:57:22;;;;;;;8.17;5.63;;;15.60;99.90;;;;;;5027269;28;20846;-78
2022/11/02 00:59:48;;;;;;;7.83;5.33;;;15.60;99.90;;;;;;5022083;28;20182;-78
2022/11/02 01:02:15;;;;;;;9.27;5.70;;;15.60;99.90;;;;;;5028506;28;20575;-78
2022/11/02 01:04:42;;;;;;;8.10;5.33;;;15.60;99.90;;;;;;5019458;28;20739;-78
2022/11/02 01:07:09;;;;;;;11.77;5.67;;;15.50;99.90;;;;;;5027921;28;20791;-78
2022/11/02 01:09:35;;;;;;;8.57;5.27;;;15.50;99.90;;;;;;5024498;28;20525;-77
2022/11/02 01:12:02;;;;;;;10.27;5.33;;;15.50;99.90;;;;;;5050799;28;20635;-78
2022/11/02 01:14:30;;;;;;;9.80;5.43;;;15.60;99.90;;;;;;5017714;28;20607;-78
2022/11/02 01:16:57;;;;;;;7.70;5.60;;;15.60;99.90;;;;;;5022440;28;20707;-77
2022/11/02 01:19:27;;;;;;;8.57;5.60;;;15.60;99.90;;;;;;5044408;28;20179;-78
2022/11/02 01:21:53;;;;;;;8.37;5.33;;;15.60;99.90;;;;;;5033056;28;20298;-77
2022/11/02 01:24:19;;;;;;;7.40;5.00;;;15.50;99.90;;;;;;5014783;28;20207;-78
2022/11/02 01:26:50;;;;;;;13.63;5.73;;;15.50;99.90;;;;;;5040119;28;20188;-78
2022/11/02 01:29:17;;;;;;;12.20;5.43;;;15.50;99.90;;;;;;5043429;28;20179;-78
2022/11/02 01:31:43;;;;;;;10.03;5.70;;;15.40;99.90;;;;;;5023946;28;20604;-77
2022/11/02 01:34:13;;;;;;;10.93;4.80;;;15.40;99.90;;;;;;5017246;28;20193;-78
2022/11/02 01:36:39;;;;;;;9.87;5.10;;;15.40;99.90;;;;;;5027831;28;20200;-78
2022/11/02 01:39:05;;;;;;;7.27;5.03;;;15.30;99.90;;;;;;5038274;28;20244;-78
2022/11/02 01:41:34;;;;;;;8.13;5.03;;;15.30;99.90;;;;;;5046000;28;20214;-78
2022/11/02 01:44:04;;;;;;;10.83;5.50;;;15.30;99.90;;;;;;5038147;28;20188;-78
2022/11/02 01:46:45;;;;;;;8.70;5.27;;;15.30;99.90;;;;;;5040513;28;20191;-77
2022/11/02 01:49:20;;;;;;;8.87;5.43;;;15.20;99.90;;;;;;5036539;28;20183;-77
2022/11/02 01:52:03;;;;;;;8.93;5.90;;;15.30;99.90;;;;;;5029331;28;20576;-78
2022/11/02 01:54:36;;;;;;;8.63;5.23;;;15.30;99.90;;;;;;5024426;28;20268;-78
2022/11/02 01:57:08;;;;;;;7.00;5.03;;;15.30;99.90;;;;;;5047159;28;20843;-78
2022/11/02 01:59:44;;;;;;;8.93;5.90;;;15.30;99.90;;;;;;5027579;28;20205;-78
2022/11/02 02:02:21;;;;;;;9.03;5.60;;;15.40;99.90;;;;;;5040180;28;20827;-77
2022/11/02 02:04:53;;;;;;;10.17;5.60;;;15.40;99.90;;;;;;5029012;28;20187;-78
2022/11/02 02:07:24;;;;;;;10.50;5.63;;;15.40;99.90;;;;;;5035442;28;20192;-78
2022/11/02 02:09:53;;;;;;;13.07;5.47;;;15.40;99.90;;;;;;5044829;28;20190;-77
2022/11/02 02:12:21;;;;;;;9.87;5.70;;;15.40;99.90;;;;;;5023321;28;20588;-78
2022/11/02 02:14:48;;;;;;;9.47;5.53;;;15.40;99.90;;;;;;5038645;28;20286;-77
2022/11/02 02:17:38;;;;;;;8.77;5.63;;;15.40;99.90;;;;;;5043653;28;20734;-77
2022/11/02 02:20:26;;;;;;;10.93;6.33;;;15.30;99.90;;;;;;5035657;28;20302;-78
2022/11/02 02:23:10;;;;;;;9.23;6.23;;;15.30;99.90;;;;;;5022900;28;20195;-77
2022/11/02 02:26:41;;;;;;;15.50;7.57;;;15.20;99.90;;;;;;5028979;28;20627;-77
2022/11/02 02:29:37;;;;;;;16.27;8.17;;;15.20;99.90;;;;;;5031295;28;20199;-77
2022/11/02 02:32:40;;;;;;;13.73;8.67;;;15.00;99.90;;;;;;5041410;28;20180;-78
2022/11/02 02:35:34;;;;;;;28.47;8.80;;;14.70;99.90;;;;;;5014885;28;20228;-77
2022/11/02 02:38:09;;;;;;;14.30;7.80;;;14.60;99.90;;;;;;5024644;28;20188;-78
2022/11/02 02:40:54;;;;;;;20.23;8.20;;;14.70;99.90;;;;;;5011646;28;20199;-77
2022/11/02 02:43:33;;;;;;;19.57;7.47;;;14.80;99.90;;;;;;5047523;28;20209;-77
2022/11/02 02:46:40;;;;;;;18.07;8.27;;;14.80;99.90;;;;;;5021842;28;20691;-77
2022/11/02 02:49:14;;;;;;;17.43;8.30;;;14.80;99.90;;;;;;5008496;28;20522;-77
2022/11/02 02:51:44;;;;;;;18.17;8.33;;;14.80;99.90;;;;;;5050506;28;20902;-77
2022/11/02 02:54:29;;;;;;;15.97;8.90;;;14.90;99.90;;;;;;5029601;28;20180;-77
2022/11/02 02:57:12;;;;;;;18.37;8.53;;;14.90;99.90;;;;;;5023106;28;20266;-78
2022/11/02 02:59:50;;;;;;;19.33;8.27;;;14.90;99.90;;;;;;5036516;28;20268;-77
2022/11/02 03:02:35;;;;;;;24.13;9.10;;;14.90;99.90;;;;;;5040098;28;20186;-77
2022/11/02 03:05:01;;;;;;;22.00;9.37;;;14.90;99.90;;;;;;5013294;28;20192;-77
2022/11/02 03:07:33;;;;;;;19.13;8.20;;;14.80;99.90;;;;;;5026596;28;20196;-78
2022/11/02 03:10:10;;;;;;;22.13;8.73;;;14.80;99.90;;;;;;5048120;28;20194;-77
2022/11/02 03:13:04;;;;;;;19.37;8.10;;;14.90;99.90;;;;;;5028237;28;20195;-77
2022/11/02 03:15:50;;;;;;;20.37;8.67;;;14.90;99.90;;;;;;5040962;28;20184;-77
2022/11/02 03:18:58;;;;;;;16.23;9.10;;;14.90;99.90;;;;;;5032706;28;20915;-78
2022/11/02 03:21:44;;;;;;;15.97;8.80;;;14.90;99.90;;;;;;5026455;28;20219;-77
2022/11/02 03:24:14;;;;;;;17.10;9.30;;;14.90;99.90;;;;;;5045861;28;20195;-77
2022/11/02 03:27:12;;;;;;;18.63;9.10;;;14.90;99.90;;;;;;5021612;28;20183;-77
2022/11/02 03:30:08;;;;;;;17.47;8.30;;;14.90;99.90;;;;;;5039428;28;20385;-77
2022/11/02 03:32:57;;;;;;;18.77;8.10;;;14.90;99.90;;;;;;5006003;28;20238;-78
2022/11/02 03:35:53;;;;;;;15.83;8.60;;;14.80;99.90;;;;;;5037646;28;20183;-77
2022/11/02 03:38:34;;;;;;;17.90;8.50;;;14.90;99.90;;;;;;5049575;28;20198;-77
2022/11/02 03:41:03;;;;;;;16.30;8.60;;;14.90;99.90;;;;;;5051914;28;20211;-77
2022/11/02 03:43:35;;;;;;;23.20;9.20;;;14.90;99.90;;;;;;5037605;28;20273;-78
2022/11/02 03:46:06;;;;;;;17.53;8.70;;;14.90;99.90;;;;;;5033667;28;20184;-78
2022/11/02 03:48:43;;;;;;;30.00;8.97;;;14.90;99.90;;;;;;5039622;28;20276;-77
2022/11/02 03:51:14;;;;;;;22.40;8.60;;;14.90;99.90;;;;;;5046738;28;20286;-77
2022/11/02 03:54:10;;;;;;;18.23;8.13;;;14.90;99.90;;;;;;5047017;28;20227;-78
2022/11/02 03:56:49;;;;;;;25.60;8.90;;;14.80;99.90;;;;;;5049270;28;20200;-78
2022/11/02 03:59:15;;;;;;;16.53;8.30;;;14.80;99.90;;;;;;5026388;28;20677;-78
2022/11/02 04:01:49;;;;;;;21.00;8.20;;;14.80;99.90;;;;;;5027733;28;20280;-78
2022/11/02 04:04:18;;;;;;;18.37;9.07;;;14.80;99.90;;;;;;5028348;28;20203;-77
2022/11/02 04:06:47;;;;;;;19.73;8.50;;;14.80;99.90;;;;;;5051941;28;20571;-77
2022/11/02 04:09:13;;;;;;;18.60;8.03;;;14.80;99.90;;;;;;5029506;28;20207;-77
2022/11/02 04:14:37;;;;;;;20.27;8.23;;;14.70;99.90;;;;;;5045684;28;20618;-78
2022/11/02 04:19:55;;;;;;;19.73;7.47;;;14.70;99.90;;;;;;5033789;28;20733;-77
2022/11/02 04:25:20;;;;;;;14.63;8.13;;;14.70;99.90;;;;;;5048175;28;20284;-78
2022/11/02 04:27:52;;;;;;;19.47;7.67;;;14.70;99.90;;;;;;5041153;28;20212;-77
2022/11/02 04:30:21;;;;;;;17.47;8.53;;;14.70;99.90;;;;;;5046446;28;20187;-78
2022/11/02 04:35:37;;;;;;;18.53;8.27;;;14.80;99.90;;;;;;5054775;28;20194;-78
2022/11/02 04:41:40;;;;;;;19.90;7.20;;;14.70;99.90;;;;;;5040101;28;20601;-78
2022/11/02 04:43:35;;;;;;;15.40;7.17;;;14.70;99.90;;;;;;5027049;28;20191;-78
2022/11/02 04:46:02;;;;;;;17.90;7.37;;;14.70;99.90;;;;;;5010974;28;20214;-78
2022/11/02 04:48:29;;;;;;;20.00;7.40;;;14.70;99.90;;;;;;5013423;28;20183;-78
2022/11/02 04:50:57;;;;;;;17.07;6.77;;;14.70;99.90;;;;;;5046070;28;20203;-78
2022/11/02 04:53:23;;;;;;;19.20;6.47;;;14.70;99.90;;;;;;5026938;28;20238;-78
2022/11/02 04:55:50;;;;;;;12.17;6.40;;;14.80;99.90;;;;;;5028537;28;20223;-78
2022/11/02 04:58:16;;;;;;;21.77;7.17;;;14.80;99.90;;;;;;5028820;28;20188;-77
2022/11/02 05:00:42;;;;;;;20.67;7.03;;;14.80;99.90;;;;;;5040879;28;20214;-77
2022/11/02 05:03:09;;;;;;;15.77;7.00;;;14.90;99.90;;;;;;5044134;28;20184;-77
2022/11/02 05:05:35;;;;;;;24.20;6.70;;;14.90;99.90;;;;;;5043532;28;20194;-77
2022/11/02 05:08:02;;;;;;;19.70;7.50;;;14.90;99.90;;;;;;5048854;28;20222;-77
2022/11/02 05:10:30;;;;;;;16.13;6.50;;;14.90;99.90;;;;;;5044339;28;20206;-78
2022/11/02 05:12:58;;;;;;;21.87;8.00;;;15.00;99.90;;;;;;5050615;28;20563;-78
2022/11/02 05:15:25;;;;;;;14.20;6.87;;;15.00;99.90;;;;;;5027538;28;20287;-77
2022/11/02 05:17:54;;;;;;;15.40;6.83;;;15.00;99.90;;;;;;5032554;28;20221;-78
2022/11/02 05:20:21;;;;;;;16.00;7.00;;;15.00;99.90;;;;;;5044472;28;20315;-77
2022/11/02 05:22:48;;;;;;;14.50;7.10;;;15.00;99.90;;;;;;5035127;28;20195;-77
2022/11/02 05:25:14;;;;;;;13.80;7.00;;;15.10;99.90;;;;;;5038367;28;20192;-78
2022/11/02 05:27:41;;;;;;;15.03;7.20;;;15.10;99.90;;;;;;5019556;28;20231;-78
2022/11/02 05:30:09;;;;;;;13.90;7.67;;;15.10;99.90;;;;;;5023853;28;20277;-77
2022/11/02 05:32:35;;;;;;;13.60;7.53;;;15.20;99.90;;;;;;5044270;28;20250;-77
2022/11/02 05:35:02;;;;;;;15.43;7.23;;;15.20;99.90;;;;;;5048201;28;20184;-77
2022/11/02 05:37:28;;;;;;;15.83;6.70;;;15.30;99.90;;;;;;5052247;28;20188;-77
2022/11/02 05:39:55;;;;;;;14.97;7.20;;;15.30;99.90;;;;;;5027370;28;20295;-78
2022/11/02 05:42:21;;;;;;;15.97;6.97;;;15.40;99.90;;;;;;4995578;28;20223;-78
2022/11/02 05:44:48;;;;;;;19.73;7.03;;;15.50;99.90;;;;;;5044229;28;20297;-77
2022/11/02 05:47:15;;;;;;;10.60;6.40;;;15.60;99.90;;;;;;5044714;28;20195;-78
2022/11/02 05:49:42;;;;;;;17.53;7.50;;;15.60;99.90;;;;;;5027802;28;20851;-78
2022/11/02 05:52:08;;;;;;;10.63;7.20;;;15.70;99.90;;;;;;5053818;28;20270;-78
2022/11/02 05:54:39;;;;;;;15.43;6.53;;;15.80;99.90;;;;;;5030755;28;20306;-78
2022/11/02 05:57:05;;;;;;;12.50;6.20;;;15.90;99.90;;;;;;5030862;28;20906;-78
2022/11/02 05:59:32;;;;;;;16.70;6.97;;;15.90;99.90;;;;;;5049063;28;20906;-77
2022/11/02 06:01:59;;;;;;;16.90;7.20;;;16.00;99.90;;;;;;5028569;28;20620;-78
2022/11/02 06:04:29;;;;;;;14.10;6.73;;;16.00;99.90;;;;;;5036307;28;20223;-77
2022/11/02 06:06:55;;;;;;;13.77;7.40;;;16.10;99.90;;;;;;5036933;28;20217;-78
2022/11/02 06:09:22;;;;;;;17.83;7.37;;;16.10;99.90;;;;;;5030667;28;20206;-77
2022/11/02 06:11:48;;;;;;;13.33;7.20;;;16.20;99.90;;;;;;5053170;28;20211;-78
2022/11/02 06:14:17;;;;;;;14.70;7.40;;;16.30;99.90;;;;;;5030496;28;20188;-77
2022/11/02 06:16:44;;;;;;;18.20;7.57;;;16.30;99.90;;;;;;5051153;28;20692;-77
2022/11/02 06:19:10;;;;;;;18.27;7.43;;;16.40;99.90;;;;;;5027170;28;20509;-77
2022/11/02 06:21:36;;;;;;;13.80;7.50;;;16.40;99.90;;;;;;5035924;28;20230;-78
2022/11/02 06:24:03;;;;;;;15.40;7.23;;;16.40;99.90;;;;;;5049210;28;20285;-78
2022/11/02 06:26:30;;;;;;;17.30;7.20;;;16.50;99.90;;;;;;5020894;28;20188;-77
2022/11/02 06:28:56;;;;;;;13.40;7.33;;;16.60;99.90;;;;;;5038593;28;20189;-77
2022/11/02 06:31:23;;;;;;;19.20;7.40;;;16.60;99.90;;;;;;5042276;28;20679;-78
2022/11/02 06:33:50;;;;;;;15.53;6.90;;;16.60;99.90;;;;;;5049133;28;20191;-78
2022/11/02 06:36:17;;;;;;;16.93;6.50;;;16.60;99.90;;;;;;5040226;28;20601;-78
2022/11/02 06:38:44;;;;;;;14.07;6.53;;;16.60;99.90;;;;;;5057481;28;20213;-77
2022/11/02 06:41:12;;;;;;;13.73;6.23;;;16.60;99.90;;;;;;5025000;28;20315;-77
2022/11/02 06:43:39;;;;;;;19.80;6.63;;;16.60;99.90;;;;;;5028025;28;20207;-77
2022/11/02 06:46:06;;;;;;;24.43;6.17;;;16.60;99.90;;;;;;5049172;28;20211;-77
2022/11/02 06:48:34;;;;;;;16.40;6.53;;;16.60;99.90;;;;;;5025883;28;20203;-77
2022/11/02 06:51:05;;;;;;;20.83;6.80;;;16.70;99.90;;;;;;5043915;28;20212;-76
2022/11/02 06:53:32;;;;;;;18.43;6.53;;;16.80;99.90;;;;;;5033458;28;20198;-78
2022/11/02 06:55:59;;;;;;;16.37;6.10;;;16.90;99.90;;;;;;5015068;28;20203;-77
2022/11/02 06:58:26;;;;;;;22.83;6.20;;;16.90;99.90;;;;;;5035434;28;20188;-76
2022/11/02 07:01:09;;;;;;;19.80;6.03;;;17.00;99.90;;;;;;5028092;28;20595;-78
2022/11/02 07:03:36;;;;;;;19.53;6.60;;;17.00;99.90;;;;;;5030502;28;20226;-77
2022/11/02 07:06:04;;;;;;;16.10;6.47;;;17.00;99.90;;;;;;5042347;28;20199;-77
2022/11/02 07:08:31;;;;;;;19.03;6.50;;;17.10;99.90;;;;;;5006709;28;20176;-78
2022/11/02 07:10:58;;;;;;;20.47;6.30;;;17.10;99.90;;;;;;5047649;28;20242;-77
2022/11/02 07:13:24;;;;;;;19.47;6.20;;;17.10;99.90;;;;;;5024002;28;20191;-77
2022/11/02 07:15:53;;;;;;;15.33;5.70;;;17.20;99.90;;;;;;5046752;28;20261;-77
2022/11/02 07:18:20;;;;;;;15.63;5.50;;;17.30;99.90;;;;;;5029015;28;20250;-77
2022/11/02 07:20:48;;;;;;;17.13;5.33;;;17.30;99.90;;;;;;5030879;28;20215;-77
2022/11/02 07:23:15;;;;;;;14.60;5.20;;;17.40;99.90;;;;;;5040845;28;20196;-78
2022/11/02 07:25:41;;;;;;;14.67;5.20;;;17.60;99.90;;;;;;5003761;28;20592;-78
2022/11/02 07:28:08;;;;;;;9.60;4.87;;;17.70;99.90;;;;;;5025289;28;20564;-77
2022/11/02 07:30:36;;;;;;;9.63;4.80;;;17.80;99.90;;;;;;5044687;28;20249;-77
2022/11/02 07:33:02;;;;;;;12.10;4.53;;;17.90;99.90;;;;;;5025200;28;20192;-77
2022/11/02 07:35:29;;;;;;;13.60;4.73;;;18.00;99.90;;;;;;5028481;28;20197;-77
2022/11/02 07:38:03;;;;;;;21.00;5.43;;;18.10;99.90;;;;;;5014857;28;20245;-77
2022/11/02 07:40:31;;;;;;;16.17;5.43;;;18.10;99.90;;;;;;5028628;28;20315;-77
2022/11/02 07:42:58;;;;;;;13.97;4.60;;;18.00;99.90;;;;;;5024328;28;20210;-77
2022/11/02 07:45:26;;;;;;;18.27;5.00;;;18.10;99.90;;;;;;5035613;28;20196;-77
2022/11/02 07:47:52;;;;;;;14.87;4.93;;;18.20;99.90;;;;;;5031582;28;20719;-78
2022/11/02 07:50:22;;;;;;;16.37;4.73;;;18.20;99.90;;;;;;5032132;28;20188;-77
2022/11/02 07:52:57;;;;;;;12.50;4.97;;;18.30;99.90;;;;;;5040779;28;20187;-77
2022/11/02 07:55:28;;;;;;;12.20;4.60;;;18.40;99.90;;;;;;5028319;28;20183;-78
2022/11/02 07:58:03;;;;;;;11.57;4.63;;;18.40;99.90;;;;;;5012727;28;20191;-77
2022/11/02 08:00:36;;;;;;;11.57;4.67;;;18.40;99.90;;;;;;5051859;28;20218;-78
2022/11/02 08:03:05;;;;;;;8.43;4.70;;;18.40;99.90;;;;;;5022208;28;20270;-78
2022/11/02 08:05:37;;;;;;;17.40;4.80;;;18.50;99.90;;;;;;5029347;28;22071;-78
2022/11/02 08:08:24;;;;;;;10.07;4.20;;;18.60;99.90;;;;;;5043030;28;20198;-77
2022/11/02 08:10:52;;;;;;;16.73;4.50;;;18.60;99.90;;;;;;5043595;28;20192;-77
2022/11/02 08:13:24;;;;;;;14.47;4.37;;;18.70;99.90;;;;;;5036381;28;20200;-77
2022/11/02 08:15:54;;;;;;;12.53;4.63;;;18.70;99.90;;;;;;5038699;28;20553;-78
2022/11/02 08:18:24;;;;;;;18.27;4.93;;;18.80;99.90;;;;;;5030390;28;20296;-77
2022/11/02 08:20:51;;;;;;;9.67;3.93;;;18.90;99.90;;;;;;5022067;28;20208;-77
2022/11/02 08:23:19;;;;;;;16.90;5.63;;;19.00;99.90;;;;;;5051631;28;20279;-77
2022/11/02 08:25:48;;;;;;;10.10;4.60;;;19.10;99.90;;;;;;5042109;28;20660;-77
2022/11/02 08:28:24;;;;;;;15.37;4.83;;;19.20;99.90;;;;;;5049547;28;20191;-77
2022/11/02 08:30:52;;;;;;;9.53;4.30;;;19.30;99.90;;;;;;5041751;28;20191;-77
2022/11/02 08:33:19;;;;;;;8.57;4.00;;;19.40;99.90;;;;;;5027664;28;20190;-77
2022/11/02 08:35:48;;;;;;;10.43;4.03;;;19.50;99.90;;;;;;5026993;28;20208;-77
2022/11/02 08:38:15;;;;;;;11.03;4.63;;;19.50;99.90;;;;;;5027783;28;20199;-77
2022/11/02 08:40:50;;;;;;;9.53;4.50;;;19.50;99.90;;;;;;5009021;28;20214;-77
2022/11/02 08:43:17;;;;;;;8.47;4.30;;;19.60;99.90;;;;;;5019567;28;20694;-77
2022/11/02 08:45:46;;;;;;;10.57;4.30;;;19.70;99.90;;;;;;5027350;28;20188;-77
2022/11/02 08:48:14;;;;;;;12.80;4.30;;;19.80;99.90;;;;;;5007834;28;20200;-77
2022/11/02 08:50:40;;;;;;;16.70;4.90;;;19.80;99.90;;;;;;5040889;28;20199;-77
2022/11/02 08:53:07;;;;;;;16.87;5.33;;;19.80;99.90;;;;;;5011578;28;20895;-77
2022/11/02 08:55:34;;;;;;;9.00;4.40;;;19.80;99.90;;;;;;5044279;28;20198;-77
2022/11/02 08:58:01;;;;;;;8.17;4.00;;;19.90;99.90;;;;;;5039728;28;20215;-77
2022/11/02 09:00:30;;;;;;;12.50;4.47;;;19.90;99.90;;;;;;5025231;28;21308;-78
2022/11/02 09:03:10;;;;;;;14.30;4.80;;;19.90;99.90;;;;;;5047911;28;20193;-77
2022/11/02 09:05:43;;;;;;;13.83;4.63;;;20.00;99.90;;;;;;5048100;28;20191;-77
2022/11/02 09:08:17;;;;;;;13.20;5.30;;;20.10;99.90;;;;;;5053405;28;20774;-77
2022/11/02 09:10:49;;;;;;;13.10;4.73;;;20.10;99.90;;;;;;5022864;28;20199;-77
2022/11/02 09:13:23;;;;;;;11.83;4.50;;;20.20;99.90;;;;;;5036162;28;20199;-77
2022/11/02 09:15:52;;;;;;;13.63;4.90;;;20.20;99.90;;;;;;5030101;28;20191;-77
2022/11/02 09:18:19;;;;;;;21.83;5.13;;;20.20;99.90;;;;;;5044504;28;20205;-77
2022/11/02 09:20:47;;;;;;;13.70;4.90;;;20.10;99.90;;;;;;5039194;28;20334;-78
2022/11/02 09:23:19;;;;;;;16.43;5.10;;;20.20;99.90;;;;;;5029711;28;22223;-77
2022/11/02 09:25:46;;;;;;;13.83;4.80;;;20.20;99.90;;;;;;5025506;28;20239;-77
2022/11/02 09:28:14;;;;;;;14.00;4.23;;;20.20;99.90;;;;;;5005717;28;20187;-78
2022/11/02 09:30:42;;;;;;;17.23;5.03;;;20.30;99.90;;;;;;5023744;28;20202;-77
2022/11/02 09:33:09;;;;;;;13.73;4.57;;;20.30;99.90;;;;;;5011155;28;20191;-78
2022/11/02 09:35:40;;;;;;;14.80;5.27;;;20.30;99.90;;;;;;5035384;28;20223;-77
2022/11/02 09:38:06;;;;;;;11.87;4.90;;;20.30;99.90;;;;;;5029277;28;20757;-78
2022/11/02 09:40:58;;;;;;;23.43;5.57;;;20.40;99.90;;;;;;5048812;28;21054;-77
2022/11/02 09:43:52;;;;;;;13.53;5.50;;;20.60;99.90;;;;;;5047256;28;20217;-77
2022/11/02 09:46:30;;;;;;;13.60;4.90;;;20.50;99.90;;;;;;5043418;28;20184;-77
2022/11/02 09:49:10;;;;;;;10.57;4.73;;;20.60;99.90;;;;;;5034707;28;20374;-77
2022/11/02 09:51:57;;;;;;;11.53;5.13;;;20.60;99.90;;;;;;5020935;28;20191;-78
2022/11/02 09:54:46;;;;;;;15.83;4.83;;;20.70;99.90;;;;;;5060419;28;20852;-78
2022/11/02 09:57:32;;;;;;;17.27;5.20;;;20.70;99.90;;;;;;5035727;28;20211;-77
2022/11/02 09:59:59;;;;;;;19.07;4.83;;;21.00;99.90;;;;;;5018716;28;20195;-77
2022/11/02 10:02:49;;;;;;;15.30;4.83;;;21.10;99.90;;;;;;5057140;28;20218;-77
2022/11/02 10:05:47;;;;;;;14.80;5.10;;;21.20;99.90;;;;;;5053284;28;20632;-77
2022/11/02 10:08:21;;;;;;;12.30;5.00;;;21.40;99.90;;;;;;5035566;28;20191;-77
2022/11/02 10:11:20;;;;;;;17.27;5.17;;;21.70;99.90;;;;;;5029071;28;20195;-76
2022/11/02 10:14:07;;;;;;;12.83;4.97;;;21.80;99.90;;;;;;5036136;28;20850;-77
2022/11/02 10:16:43;;;;;;;17.58;5.43;;;22.00;99.90;;;;;;5033596;28;20215;-77
2022/11/02 10:19:16;;;;;;;16.02;5.15;;;22.30;99.90;;;;;;5035168;28;20209;-77
2022/11/02 10:21:50;;;;;;;17.92;5.60;;;22.70;99.90;;;;;;5034924;28;20660;-76
2022/11/02 10:24:28;;;;;;;15.77;6.30;;;24.70;99.90;;;;;;5010512;28;20187;-75
2022/11/02 10:27:00;;;;;;;16.05;5.47;;;26.40;99.90;;;;;;5032964;28;20182;-75
2022/11/02 10:29:35;;;;;;;16.13;6.25;;;27.70;99.90;;;;;;5016849;28;20264;-78
2022/11/02 10:32:03;;;;;;;16.73;5.95;;;28.50;99.90;;;;;;5056976;28;20187;-75
2022/11/02 10:34:30;;;;;;;15.10;6.03;;;27.30;99.90;;;;;;5020089;28;20664;-75
2022/11/02 10:37:15;;;;;;;16.27;5.68;;;25.80;99.90;;;;;;5066744;28;20202;-75
2022/11/02 10:39:59;;;;;;;22.50;6.95;;;24.70;99.90;;;;;;5037744;28;20238;-75
2022/11/02 10:43:24;;;;;;;14.40;5.70;;;24.00;99.90;;;;;;5056105;28;20279;-77
2022/11/02 10:46:24;;;;;;;16.42;5.43;;;23.80;99.90;;;;;;5039635;28;20188;-75
2022/11/02 10:49:45;;;;;;;15.50;5.68;;;23.60;99.90;;;;;;5013129;28;20190;-75
2022/11/02 10:52:15;;;;;;;17.25;5.07;;;23.80;99.90;;;;;;5043294;28;20540;-77
2022/11/02 10:54:43;;;;;;;14.55;5.22;;;23.90;99.90;;;;;;5013304;28;20187;-74
2022/11/02 10:57:22;;;;;;;15.02;5.32;;;24.00;99.90;;;;;;5046499;28;20655;-75
2022/11/02 11:00:31;;;;;;;11.43;4.82;;;24.90;99.90;;;;;;5027156;28;20196;-76
2022/11/02 11:03:16;;;;;;;12.32;5.38;;;23.70;99.90;;;;;;5027084;28;20252;-75
2022/11/02 11:06:00;;;;;;;16.20;5.70;;;23.10;99.90;;;;;;5040099;28;20187;-78
2022/11/02 11:08:45;;;;;;;13.43;5.75;;;22.90;99.90;;;;;;5030098;28;20223;-75
2022/11/02 11:11:26;;;;;;;16.05;5.35;;;22.80;99.90;;;;;;5019598;28;20264;-77
2022/11/02 11:14:25;;;;;;;11.45;4.90;;;22.70;99.90;;;;;;5054125;28;20186;-75
2022/11/02 11:17:01;;;;;;;14.07;5.40;;;22.70;99.90;;;;;;5021807;28;20188;-75
2022/11/02 11:19:50;;;;;;;13.90;5.40;;;22.80;99.90;;;;;;5041938;28;20183;-77
2022/11/02 11:22:34;;;;;;;11.38;5.45;;;22.80;99.90;;;;;;5050065;28;20215;-75
2022/11/02 11:25:24;;;;;;;11.85;5.90;;;22.80;99.90;;;;;;5032586;28;20323;-77
2022/11/02 11:27:56;;;;;;;10.45;5.30;;;22.80;99.90;;;;;;5043817;28;20183;-77
2022/11/02 11:30:36;;;;;;;17.85;5.50;;;22.70;99.90;;;;;;5048255;28;20241;-75
2022/11/02 11:33:06;;;;;;;11.30;4.75;;;22.70;99.90;;;;;;5006049;28;20191;-77
2022/11/02 11:35:40;;;;;;;20.20;5.72;;;22.70;99.90;;;;;;5017979;28;20195;-77
2022/11/02 11:38:16;;;;;;;15.10;5.22;;;22.70;99.90;;;;;;5019428;28;20210;-77
2022/11/02 11:40:53;;;;;;;18.27;6.03;;;22.70;99.90;;;;;;5031097;28;20233;-77
2022/11/02 11:43:32;;;;;;;15.70;5.00;;;22.70;99.90;;;;;;5048373;28;20179;-77
2022/11/02 11:46:05;;;;;;;12.55;5.45;;;22.60;99.90;;;;;;5048954;28;20195;-77
2022/11/02 11:48:46;;;;;;;16.10;5.35;;;22.50;99.90;;;;;;5030380;28;20762;-77
2022/11/02 11:51:42;;;;;;;13.63;5.55;;;22.50;99.90;;;;;;5032904;28;20187;-77
2022/11/02 11:54:28;;;;;;;14.02;5.22;;;22.50;99.90;;;;;;5012498;28;20190;-77
2022/11/02 11:57:15;;;;;;;16.35;5.70;;;22.40;99.90;;;;;;5043268;28;20183;-77
2022/11/02 11:59:47;;;;;;;14.57;5.28;;;22.40;99.90;;;;;;5048948;28;20187;-77
2022/11/02 12:02:32;;;;;;;11.13;5.10;;;22.40;99.90;;;;;;5038030;28;20220;-77
2022/11/02 12:05:14;;;;;;;16.23;5.20;;;22.40;99.90;;;;;;5056533;28;20186;-77
2022/11/02 12:07:59;;;;;;;7.45;4.57;;;22.30;99.90;;;;;;5048882;28;20245;-77
2022/11/02 12:10:48;;;;;;;12.93;5.15;;;22.30;99.90;;;;;;5028999;28;20226;-77
2022/11/02 12:13:43;;;;;;;11.60;4.88;;;22.30;99.90;;;;;;5044251;28;20186;-77
2022/11/02 12:17:02;;;;;;;13.45;4.68;;;22.30;99.90;;;;;;5046261;28;20206;-77
2022/11/02 12:19:58;;;;;;;9.65;4.65;;;22.20;99.90;;;;;;4961119;28;20199;-77
2022/11/02 12:23:09;;;;;;;17.83;5.67;;;22.20;99.90;;;;;;5033536;28;20305;-77
2022/11/02 12:26:11;;;;;;;15.73;5.27;;;22.10;99.90;;;;;;5046375;28;20434;-77
2022/11/02 12:29:14;;;;;;;12.98;5.28;;;22.10;99.90;;;;;;5007258;28;20198;-77
2022/11/02 12:32:01;;;;;;;16.70;5.23;;;22.00;99.90;;;;;;5022384;28;20202;-77
2022/11/02 12:34:45;;;;;;;11.02;5.28;;;22.00;99.90;;;;;;5013554;28;20724;-77
2022/11/02 12:37:44;;;;;;;10.30;4.90;;;22.00;99.90;;;;;;5012924;28;20227;-77
2022/11/02 12:40:32;;;;;;;12.50;4.85;;;21.90;99.90;;;;;;5016569;28;20194;-77
2022/11/02 12:43:38;;;;;;;11.05;4.80;;;21.90;99.90;;;;;;5020130;28;20560;-77
2022/11/02 12:46:27;;;;;;;12.07;5.07;;;21.90;99.90;;;;;;5025041;28;20679;-77
2022/11/02 12:49:30;;;;;;;15.50;5.90;;;21.80;99.90;;;;;;5026785;28;20199;-77
2022/11/02 12:52:27;;;;;;;12.07;5.27;;;21.80;99.90;;;;;;5022249;28;20537;-77
2022/11/02 12:55:00;;;;;;;19.90;5.38;;;21.70;99.90;;;;;;5022475;28;20265;-77
2022/11/02 12:57:36;;;;;;;11.68;4.75;;;21.70;99.90;;;;;;5044853;28;20691;-77
2022/11/02 13:00:30;;;;;;;13.60;5.15;;;21.70;99.90;;;;;;5011386;28;20194;-77
2022/11/02 13:03:26;;;;;;;14.10;5.28;;;21.60;99.90;;;;;;5023802;28;20237;-77
2022/11/02 13:06:02;;;;;;;12.97;5.40;;;21.50;99.90;;;;;;5020263;28;20191;-77
2022/11/02 13:08:44;;;;;;;11.90;5.05;;;21.50;99.90;;;;;;5039793;28;20274;-77
2022/11/02 13:11:28;;;;;;;12.80;5.28;;;21.40;99.90;;;;;;5010319;28;20731;-77
2022/11/02 13:13:58;;;;;;;15.90;5.33;;;21.30;99.90;;;;;;5028618;28;20187;-77
2022/11/02 13:17:14;;;;;;;18.47;5.80;;;21.30;99.90;;;;;;5032269;28;20267;-77
2022/11/02 13:19:48;;;;;;;9.93;4.87;;;21.30;99.90;;;;;;5004675;28;20188;-77
2022/11/02 13:22:19;;;;;;;14.47;4.87;;;21.30;99.90;;;;;;5027525;28;21023;-77
2022/11/02 13:24:55;;;;;;;10.50;5.10;;;21.20;99.90;;;;;;5041538;28;21042;-77
2022/11/02 13:27:36;;;;;;;15.30;5.37;;;21.20;99.90;;;;;;5040227;28;20188;-77
2022/11/02 13:30:16;;;;;;;16.47;5.63;;;21.20;99.90;;;;;;5005300;28;20207;-76
2022/11/02 13:33:07;;;;;;;10.60;5.27;;;21.20;99.90;;;;;;5037896;28;20180;-77